createdAt,value
2018-07-02T00:00:06.222Z,48.80
2018-07-02T00:01:05.998Z,48.60
2018-07-02T00:02:06.255Z,48.50
2018-07-02T00:03:08.369Z,48.80
2018-07-02T00:04:13.457Z,48.70
2018-07-02T00:05:06.486Z,48.70
2018-07-02T00:06:06.582Z,49.00
2018-07-02T00:07:06.197Z,49.10
2018-07-02T00:08:05.806Z,49.00
2018-07-02T00:09:07.561Z,49.00
2018-07-02T00:10:06.216Z,48.90
2018-07-02T00:11:05.721Z,49.10
2018-07-02T00:12:11.224Z,49.20
2018-07-02T00:13:06.205Z,49.20
2018-07-02T00:14:06.022Z,49.90
2018-07-02T00:15:06.424Z,50.40
2018-07-02T00:16:05.797Z,50.50
2018-07-02T00:17:06.784Z,50.80
2018-07-02T00:18:06.644Z,50.40
2018-07-02T00:19:05.848Z,50.80
2018-07-02T00:20:05.758Z,50.70
2018-07-02T00:21:06.168Z,50.90
2018-07-02T00:22:06.906Z,51.20
2018-07-02T00:23:05.503Z,51.20
2018-07-02T00:24:06.333Z,50.90
2018-07-02T00:25:10.887Z,51.00
2018-07-02T00:26:11.289Z,50.90
2018-07-02T00:27:11.133Z,50.90
2018-07-02T00:28:10.482Z,51.10
2018-07-02T00:29:05.972Z,51.10
2018-07-02T00:30:07.007Z,51.00
2018-07-02T00:31:05.770Z,51.30
2018-07-02T00:32:10.811Z,51.50
2018-07-02T00:33:06.465Z,51.50
2018-07-02T00:34:06.435Z,51.80
2018-07-02T00:35:06.016Z,51.60
2018-07-02T00:36:10.597Z,51.60
2018-07-02T00:37:06.408Z,51.60
2018-07-02T00:38:05.968Z,52.00
2018-07-02T00:39:09.007Z,51.90
2018-07-02T00:40:05.517Z,51.90
2018-07-02T00:41:06.307Z,52.30
2018-07-02T00:42:06.736Z,52.20
2018-07-02T00:43:11.039Z,52.30
2018-07-02T00:44:05.658Z,52.50
2018-07-02T00:45:06.853Z,52.20
2018-07-02T00:46:06.224Z,52.10
2018-07-02T00:47:06.139Z,51.90
2018-07-02T00:48:08.665Z,51.60
2018-07-02T00:49:11.667Z,51.50
2018-07-02T00:50:06.037Z,51.80
2018-07-02T00:51:06.610Z,52.00
2018-07-02T00:52:09.183Z,52.50
2018-07-02T00:53:05.792Z,52.50
2018-07-02T00:54:09.809Z,53.00
2018-07-02T00:55:06.398Z,52.90
2018-07-02T00:56:06.519Z,52.80
2018-07-02T00:57:06.081Z,52.90
2018-07-02T00:58:05.768Z,52.80
2018-07-02T00:59:06.588Z,52.50
2018-07-02T01:00:08.837Z,52.30
2018-07-02T01:01:08.829Z,52.50
2018-07-02T01:02:11.342Z,52.40
2018-07-02T01:03:07.423Z,52.40
2018-07-02T01:04:06.138Z,52.60
2018-07-02T01:05:05.680Z,52.50
2018-07-02T01:06:06.235Z,52.30
2018-07-02T01:07:07.387Z,52.40
2018-07-02T01:08:05.801Z,53.10
2018-07-02T01:09:05.365Z,53.40
2018-07-02T01:10:09.770Z,53.30
2018-07-02T01:11:06.692Z,53.30
2018-07-02T01:12:11.605Z,53.10
2018-07-02T01:13:06.667Z,52.90
2018-07-02T01:14:06.623Z,53.10
2018-07-02T01:15:05.590Z,53.10
2018-07-02T01:16:06.642Z,53.00
2018-07-02T01:17:06.074Z,53.10
2018-07-02T01:18:09.305Z,53.80
2018-07-02T01:19:06.307Z,53.80
2018-07-02T01:20:06.047Z,53.90
2018-07-02T01:21:10.638Z,53.90
2018-07-02T01:22:06.632Z,54.20
2018-07-02T01:23:05.999Z,53.80
2018-07-02T01:24:09.233Z,53.90
2018-07-02T01:25:05.746Z,53.90
2018-07-02T01:26:09.865Z,54.20
2018-07-02T01:27:06.163Z,54.20
2018-07-02T01:28:05.788Z,54.30
2018-07-02T01:29:05.663Z,54.20
2018-07-02T01:30:06.373Z,54.30
2018-07-02T01:31:06.697Z,54.00
2018-07-02T01:32:06.043Z,54.40
2018-07-02T01:33:05.732Z,54.20
2018-07-02T01:34:05.993Z,54.10
2018-07-02T01:35:06.317Z,54.50
2018-07-02T01:36:11.108Z,54.20
2018-07-02T01:37:06.007Z,54.20
2018-07-02T01:38:08.527Z,54.00
2018-07-02T01:39:09.116Z,54.50
2018-07-02T01:40:08.789Z,54.90
2018-07-02T01:41:06.840Z,54.90
2018-07-02T01:42:05.879Z,55.10
2018-07-02T01:43:06.366Z,55.10
2018-07-02T01:44:05.991Z,55.30
2018-07-02T01:45:08.963Z,55.10
2018-07-02T01:46:07.964Z,55.30
2018-07-02T01:47:05.410Z,55.30
2018-07-02T01:48:05.547Z,55.30
2018-07-02T01:49:06.008Z,55.20
2018-07-02T01:50:06.695Z,54.90
2018-07-02T01:51:06.327Z,55.10
2018-07-02T01:52:09.369Z,54.80
2018-07-02T01:53:05.865Z,54.80
2018-07-02T01:54:05.400Z,54.70
2018-07-02T01:55:10.801Z,55.00
2018-07-02T01:56:11.183Z,55.20
2018-07-02T01:57:10.443Z,55.20
2018-07-02T01:58:08.524Z,54.80
2018-07-02T01:59:11.143Z,54.90
2018-07-02T02:00:10.730Z,55.00
2018-07-02T02:01:06.555Z,55.20
2018-07-02T02:02:08.586Z,55.20
2018-07-02T02:03:06.529Z,55.20
2018-07-02T02:04:08.119Z,55.30
2018-07-02T02:05:06.518Z,55.20
2018-07-02T02:06:06.123Z,55.20
2018-07-02T02:07:08.979Z,55.80
2018-07-02T02:08:10.593Z,55.80
2018-07-02T02:09:06.467Z,55.50
2018-07-02T02:10:06.074Z,55.30
2018-07-02T02:11:06.402Z,55.70
2018-07-02T02:12:08.534Z,56.30
2018-07-02T02:13:06.422Z,56.30
2018-07-02T02:14:07.153Z,56.50
2018-07-02T02:15:06.492Z,56.30
2018-07-02T02:16:06.550Z,56.30
2018-07-02T02:17:09.597Z,57.00
2018-07-02T02:18:06.846Z,57.00
2018-07-02T02:19:05.888Z,57.20
2018-07-02T02:20:06.096Z,57.30
2018-07-02T02:21:06.160Z,57.20
2018-07-02T02:22:07.189Z,57.20
2018-07-02T02:23:06.109Z,57.70
2018-07-02T02:24:05.636Z,57.90
2018-07-02T02:25:06.268Z,57.90
2018-07-02T02:26:06.082Z,57.90
2018-07-02T02:27:06.747Z,57.60
2018-07-02T02:28:06.023Z,57.60
2018-07-02T02:29:05.610Z,57.90
2018-07-02T02:30:06.898Z,58.20
2018-07-02T02:31:08.936Z,58.00
2018-07-02T02:32:08.922Z,57.80
2018-07-02T02:33:06.514Z,57.80
2018-07-02T02:34:06.673Z,57.80
2018-07-02T02:35:10.933Z,58.30
2018-07-02T02:36:06.119Z,58.30
2018-07-02T02:37:05.858Z,58.40
2018-07-02T02:38:10.659Z,58.80
2018-07-02T02:39:09.332Z,58.70
2018-07-02T02:40:06.373Z,58.70
2018-07-02T02:41:06.055Z,58.90
2018-07-02T02:42:06.301Z,59.10
2018-07-02T02:43:05.729Z,58.70
2018-07-02T02:44:05.625Z,59.00
2018-07-02T02:45:05.930Z,59.10
2018-07-02T02:46:05.908Z,59.20
2018-07-02T02:47:05.917Z,59.30
2018-07-02T02:48:06.165Z,59.20
2018-07-02T02:49:10.696Z,59.50
2018-07-02T02:50:10.800Z,59.50
2018-07-02T02:51:11.919Z,59.70
2018-07-02T02:52:06.105Z,59.70
2018-07-02T02:53:08.252Z,59.10
2018-07-02T02:54:06.067Z,59.10
2018-07-02T02:55:06.535Z,58.90
2018-07-02T02:56:10.671Z,59.50
2018-07-02T02:57:06.105Z,59.50
2018-07-02T02:58:06.271Z,59.20
2018-07-02T02:59:06.406Z,59.30
2018-07-02T03:00:05.535Z,59.10
2018-07-02T03:01:06.356Z,58.90
2018-07-02T03:02:05.936Z,59.10
2018-07-02T03:03:06.216Z,59.10
2018-07-02T03:04:06.283Z,59.30
2018-07-02T03:05:06.617Z,59.40
2018-07-02T03:06:06.039Z,59.10
2018-07-02T03:07:05.906Z,59.10
2018-07-02T03:08:06.179Z,59.80
2018-07-02T03:09:06.917Z,59.60
2018-07-02T03:10:05.672Z,59.80
2018-07-02T03:11:11.469Z,59.50
2018-07-02T03:12:06.480Z,59.30
2018-07-02T03:13:10.550Z,59.10
2018-07-02T03:14:05.652Z,59.10
2018-07-02T03:15:06.229Z,59.50
2018-07-02T03:16:06.264Z,59.50
2018-07-02T03:17:11.299Z,60.00
2018-07-02T03:18:10.809Z,60.40
2018-07-02T03:19:06.452Z,60.40
2018-07-02T03:20:11.304Z,60.60
2018-07-02T03:21:06.749Z,60.60
2018-07-02T03:22:05.830Z,60.20
2018-07-02T03:23:09.342Z,60.20
2018-07-02T03:24:05.989Z,60.20
2018-07-02T03:25:05.721Z,60.60
2018-07-02T03:26:06.165Z,61.10
2018-07-02T03:27:08.828Z,61.00
2018-07-02T03:28:06.139Z,60.90
2018-07-02T03:29:06.192Z,60.50
2018-07-02T03:30:05.659Z,60.20
2018-07-02T03:31:08.807Z,60.90
2018-07-02T03:32:05.586Z,60.90
2018-07-02T03:33:11.819Z,61.10
2018-07-02T03:34:06.081Z,61.10
2018-07-02T03:35:06.333Z,61.00
2018-07-02T03:36:06.252Z,61.30
2018-07-02T03:37:05.777Z,61.40
2018-07-02T03:38:06.817Z,61.20
2018-07-02T03:39:05.839Z,60.80
2018-07-02T03:40:06.742Z,61.30
2018-07-02T03:41:05.950Z,61.90
2018-07-02T03:42:06.711Z,62.00
2018-07-02T03:43:10.901Z,61.90
2018-07-02T03:44:06.050Z,61.70
2018-07-02T03:45:06.182Z,61.50
2018-07-02T03:46:11.343Z,61.00
2018-07-02T03:47:10.997Z,60.80
2018-07-02T03:48:06.105Z,60.70
2018-07-02T03:49:13.888Z,59.80
2018-07-02T03:50:11.431Z,59.50
2018-07-02T03:51:05.955Z,59.50
2018-07-02T03:52:06.223Z,59.10
2018-07-02T03:53:06.799Z,58.90
2018-07-02T03:54:10.758Z,58.50
2018-07-02T03:55:06.668Z,58.10
2018-07-02T03:56:06.211Z,57.90
2018-07-02T03:57:05.669Z,57.50
2018-07-02T03:58:06.552Z,57.20
2018-07-02T03:59:06.653Z,56.90
2018-07-02T04:00:06.744Z,56.80
2018-07-02T04:01:05.712Z,56.40
2018-07-02T04:02:06.278Z,55.80
2018-07-02T04:03:08.310Z,55.10
2018-07-02T04:04:06.185Z,55.10
2018-07-02T04:05:11.258Z,54.80
2018-07-02T04:06:11.430Z,54.40
2018-07-02T04:07:05.713Z,54.00
2018-07-02T04:08:07.426Z,53.70
2018-07-02T04:09:06.528Z,53.50
2018-07-02T04:10:06.076Z,52.80
2018-07-02T04:11:08.473Z,52.20
2018-07-02T04:12:07.055Z,52.20
2018-07-02T04:13:06.380Z,52.00
2018-07-02T04:14:06.263Z,51.50
2018-07-02T04:15:06.673Z,51.40
2018-07-02T04:16:06.240Z,51.20
2018-07-02T04:17:06.444Z,50.60
2018-07-02T04:18:10.755Z,50.00
2018-07-02T04:19:06.799Z,50.00
2018-07-02T04:20:08.924Z,48.20
2018-07-02T04:21:14.514Z,47.40
2018-07-02T04:22:08.022Z,47.10
2018-07-02T04:23:11.427Z,46.70
2018-07-02T04:24:13.006Z,46.60
2018-07-02T04:25:09.223Z,46.30
2018-07-02T04:26:05.918Z,46.30
2018-07-02T04:27:06.187Z,46.10
2018-07-02T04:28:06.274Z,45.70
2018-07-02T04:29:06.132Z,45.50
2018-07-02T04:30:05.690Z,45.00
2018-07-02T04:31:06.917Z,44.80
2018-07-02T04:32:11.276Z,43.10
2018-07-02T04:33:05.863Z,42.60
2018-07-02T04:34:06.181Z,42.40
2018-07-02T04:35:06.786Z,42.30
2018-07-02T04:36:08.431Z,42.20
2018-07-02T04:37:10.819Z,42.10
2018-07-02T04:38:11.037Z,41.60
2018-07-02T04:39:07.227Z,41.50
2018-07-02T04:40:06.095Z,41.30
2018-07-02T04:41:09.410Z,40.40
2018-07-02T04:42:06.374Z,40.40
2018-07-02T04:43:06.910Z,39.90
2018-07-02T04:44:06.461Z,39.90
2018-07-02T04:45:06.168Z,40.10
2018-07-02T04:46:06.673Z,39.40
2018-07-02T04:47:06.603Z,39.30
2018-07-02T04:48:06.585Z,39.10
2018-07-02T04:49:06.869Z,38.60
2018-07-02T04:50:06.179Z,38.40
2018-07-02T04:51:08.118Z,38.20
2018-07-02T04:52:06.302Z,38.40
2018-07-02T04:53:07.582Z,38.20
2018-07-02T04:54:06.323Z,38.40
2018-07-02T04:55:05.791Z,38.30
2018-07-02T04:56:06.343Z,38.10
2018-07-02T04:57:06.411Z,37.70
2018-07-02T04:58:11.718Z,37.10
2018-07-02T04:59:06.941Z,36.80
2018-07-02T05:00:05.989Z,36.60
2018-07-02T05:01:06.546Z,36.60
2018-07-02T05:02:08.633Z,36.00
2018-07-02T05:03:07.081Z,35.90
2018-07-02T05:04:05.821Z,35.70
2018-07-02T05:05:11.506Z,35.50
2018-07-02T05:06:11.192Z,35.50
2018-07-02T05:07:10.987Z,35.30
2018-07-02T05:08:06.405Z,35.00
2018-07-02T05:09:06.016Z,34.90
2018-07-02T05:10:06.718Z,34.90
2018-07-02T05:11:05.985Z,34.50
2018-07-02T05:12:06.341Z,34.20
2018-07-02T05:13:08.260Z,34.10
2018-07-02T05:14:15.742Z,34.00
2018-07-02T05:15:08.812Z,33.90
2018-07-02T05:16:06.477Z,33.90
2018-07-02T05:17:06.492Z,33.80
2018-07-02T05:18:08.527Z,33.80
2018-07-02T05:19:10.882Z,33.80
2018-07-02T05:20:08.421Z,33.60
2018-07-02T05:21:06.300Z,33.50
2018-07-02T05:22:05.966Z,33.70
2018-07-02T05:23:10.623Z,33.10
2018-07-02T05:24:08.216Z,32.90
2018-07-02T05:25:06.322Z,32.80
2018-07-02T05:26:06.457Z,32.70
2018-07-02T05:27:09.120Z,32.90
2018-07-02T05:28:05.450Z,32.90
2018-07-02T05:29:05.760Z,32.70
2018-07-02T05:30:09.601Z,32.10
2018-07-02T05:31:06.450Z,32.20
2018-07-02T05:32:05.953Z,32.20
2018-07-02T05:33:10.739Z,32.50
2018-07-02T05:34:10.957Z,32.40
2018-07-02T05:35:11.105Z,32.20
2018-07-02T05:36:06.031Z,32.10
2018-07-02T05:37:05.487Z,32.20
2018-07-02T05:38:05.751Z,32.10
2018-07-02T05:39:06.647Z,32.20
2018-07-02T05:40:11.300Z,32.00
2018-07-02T05:41:08.338Z,31.40
2018-07-02T05:42:10.819Z,31.40
2018-07-02T05:43:11.310Z,31.20
2018-07-02T05:44:10.723Z,31.10
2018-07-02T05:45:06.493Z,31.10
2018-07-02T05:46:08.496Z,31.00
2018-07-02T05:47:06.109Z,31.00
2018-07-02T05:48:06.570Z,30.80
2018-07-02T05:49:05.731Z,30.70
2018-07-02T05:50:08.480Z,30.90
2018-07-02T05:51:05.847Z,30.90
2018-07-02T05:52:06.245Z,30.60
2018-07-02T05:53:08.039Z,30.70
2018-07-02T05:54:07.949Z,30.70
2018-07-02T05:55:06.364Z,30.70
2018-07-02T05:56:06.555Z,30.50
2018-07-02T05:57:08.635Z,30.70
2018-07-02T05:58:05.716Z,30.70
2018-07-02T05:59:06.703Z,30.60
2018-07-02T06:00:09.435Z,30.70
2018-07-02T06:01:06.322Z,30.60
2018-07-02T06:02:05.776Z,30.10
2018-07-02T06:03:06.468Z,30.50
2018-07-02T06:04:08.276Z,29.60
2018-07-02T06:05:05.621Z,29.60
2018-07-02T06:06:08.291Z,29.80
2018-07-02T06:07:05.978Z,29.70
2018-07-02T06:08:06.786Z,29.80
2018-07-02T06:09:05.961Z,29.80
2018-07-02T06:10:06.028Z,30.60
2018-07-02T06:11:08.578Z,30.60
2018-07-02T06:12:06.142Z,30.60
2018-07-02T06:13:06.018Z,30.30
2018-07-02T06:14:06.240Z,29.90
2018-07-02T06:15:08.236Z,29.90
2018-07-02T06:16:10.547Z,29.90
2018-07-02T06:17:10.600Z,29.70
2018-07-02T06:18:05.903Z,29.70
2018-07-02T06:19:05.582Z,29.50
2018-07-02T06:20:05.917Z,29.30
2018-07-02T06:21:06.744Z,29.00
2018-07-02T06:22:06.574Z,29.10
2018-07-02T06:23:05.749Z,29.00
2018-07-02T06:24:06.382Z,28.90
2018-07-02T06:25:06.310Z,28.80
2018-07-02T06:26:08.454Z,28.10
2018-07-02T06:27:05.811Z,28.10
2018-07-02T06:28:06.159Z,27.80
2018-07-02T06:29:05.716Z,27.60
2018-07-02T06:30:10.717Z,27.80
2018-07-02T06:31:06.683Z,27.30
2018-07-02T06:32:06.308Z,27.40
2018-07-02T06:33:05.528Z,27.50
2018-07-02T06:34:10.444Z,27.40
2018-07-02T06:35:06.800Z,27.30
2018-07-02T06:36:06.489Z,27.70
2018-07-02T06:37:06.021Z,27.20
2018-07-02T06:38:06.229Z,27.10
2018-07-02T06:39:06.094Z,27.10
2018-07-02T06:40:08.829Z,27.40
2018-07-02T06:41:11.186Z,27.50
2018-07-02T06:42:05.935Z,27.40
2018-07-02T06:43:06.549Z,27.00
2018-07-02T06:44:05.743Z,28.00
2018-07-02T06:45:11.351Z,27.50
2018-07-02T06:46:10.756Z,26.30
2018-07-02T06:47:06.206Z,26.00
2018-07-02T06:48:06.317Z,25.70
2018-07-02T06:49:05.394Z,26.20
2018-07-02T06:50:05.531Z,25.40
2018-07-02T06:51:11.329Z,25.20
2018-07-02T06:52:10.669Z,25.10
2018-07-02T06:53:06.654Z,25.10
2018-07-02T06:54:05.802Z,24.60
2018-07-02T06:55:05.588Z,24.80
2018-07-02T06:56:05.862Z,24.80
2018-07-02T06:57:05.444Z,25.10
2018-07-02T06:58:10.625Z,24.80
2018-07-02T06:59:06.045Z,24.80
2018-07-02T07:00:06.292Z,24.70
2018-07-02T07:01:05.537Z,24.80
2018-07-02T07:02:05.881Z,25.30
2018-07-02T07:03:05.385Z,25.10
2018-07-02T07:04:06.283Z,25.70
2018-07-02T07:05:05.902Z,25.20
2018-07-02T07:06:06.331Z,24.30
2018-07-02T07:07:06.328Z,24.80
2018-07-02T07:08:08.112Z,23.70
2018-07-02T07:09:08.174Z,24.00
2018-07-02T07:10:05.466Z,24.00
2018-07-02T07:11:08.533Z,23.70
2018-07-02T07:12:11.003Z,23.80
2018-07-02T07:13:08.617Z,24.00
2018-07-02T07:14:06.146Z,24.00
2018-07-02T07:15:05.450Z,23.90
2018-07-02T07:16:05.442Z,24.40
2018-07-02T07:17:06.391Z,24.20
2018-07-02T07:18:09.061Z,24.20
2018-07-02T07:19:05.632Z,24.20
2018-07-02T07:20:09.061Z,23.90
2018-07-02T07:21:10.758Z,23.60
2018-07-02T07:22:05.959Z,23.60
2018-07-02T07:23:11.465Z,23.70
2018-07-02T07:24:11.020Z,23.70
2018-07-02T07:25:08.884Z,23.80
2018-07-02T07:26:09.162Z,24.00
2018-07-02T07:27:05.752Z,24.00
2018-07-02T07:28:08.442Z,24.10
2018-07-02T07:29:05.759Z,24.00
2018-07-02T07:30:05.788Z,24.50
2018-07-02T07:31:05.964Z,24.80
2018-07-02T07:32:06.170Z,24.50
2018-07-02T07:33:08.910Z,24.80
2018-07-02T07:34:08.822Z,24.70
2018-07-02T07:35:11.162Z,24.70
2018-07-02T07:36:06.074Z,25.40
2018-07-02T07:37:05.876Z,25.00
2018-07-02T07:38:08.494Z,25.30
2018-07-02T07:39:06.120Z,25.30
2018-07-02T07:40:10.731Z,24.80
2018-07-02T07:41:06.125Z,24.80
2018-07-02T07:42:06.056Z,24.70
2018-07-02T07:43:09.216Z,24.00
2018-07-02T07:44:06.025Z,24.00
2018-07-02T07:45:06.030Z,23.90
2018-07-02T07:46:05.477Z,23.30
2018-07-02T07:47:05.744Z,23.60
2018-07-02T07:48:08.467Z,23.70
2018-07-02T07:49:10.906Z,24.00
2018-07-02T07:50:06.662Z,23.90
2018-07-02T07:51:10.774Z,23.40
2018-07-02T07:52:06.071Z,23.70
2018-07-02T07:53:08.231Z,23.70
2018-07-02T07:54:08.238Z,23.40
2018-07-02T07:55:08.677Z,23.90
2018-07-02T07:56:11.091Z,23.90
2018-07-02T07:57:11.243Z,24.10
2018-07-02T07:58:06.517Z,24.10
2018-07-02T07:59:05.916Z,24.70
2018-07-02T08:00:11.224Z,24.00
2018-07-02T08:01:06.132Z,11.20
2018-07-02T08:02:06.366Z,23.70
2018-07-02T08:03:06.403Z,24.60
2018-07-02T08:04:10.653Z,24.70
2018-07-02T08:05:05.957Z,24.70
2018-07-02T08:06:05.745Z,24.60
2018-07-02T08:07:05.921Z,24.20
2018-07-02T08:08:06.097Z,23.70
2018-07-02T08:09:06.906Z,23.50
2018-07-02T08:10:05.992Z,22.90
2018-07-02T08:11:06.107Z,23.10
2018-07-02T08:12:06.223Z,23.10
2018-07-02T08:13:06.345Z,23.70
2018-07-02T08:14:10.740Z,23.60
2018-07-02T08:15:06.560Z,23.50
2018-07-02T08:16:11.052Z,23.60
2018-07-02T08:17:10.672Z,23.60
2018-07-02T08:18:07.160Z,23.40
2018-07-02T08:19:06.269Z,23.80
2018-07-02T08:20:10.409Z,24.10
2018-07-02T08:21:08.730Z,23.80
2018-07-02T08:22:06.223Z,23.80
2018-07-02T08:23:06.531Z,23.90
2018-07-02T08:24:05.782Z,24.10
2018-07-02T08:25:06.665Z,24.50
2018-07-02T08:26:05.832Z,24.60
2018-07-02T08:27:08.851Z,24.50
2018-07-02T08:28:06.145Z,24.40
2018-07-02T08:29:05.893Z,24.20
2018-07-02T08:30:06.210Z,23.90
2018-07-02T08:31:10.907Z,24.10
2018-07-02T08:32:05.542Z,24.70
2018-07-02T08:33:05.801Z,24.60
2018-07-02T08:34:11.343Z,24.30
2018-07-02T08:35:05.477Z,24.40
2018-07-02T08:36:06.114Z,24.40
2018-07-02T08:37:06.580Z,23.90
2018-07-02T08:38:05.792Z,23.80
2018-07-02T08:39:06.215Z,23.80
2018-07-02T08:40:05.394Z,23.60
2018-07-02T08:41:09.067Z,24.10
2018-07-02T08:42:05.470Z,24.10
2018-07-02T08:43:05.679Z,24.30
2018-07-02T08:44:05.441Z,24.00
2018-07-02T08:45:06.850Z,24.00
2018-07-02T08:46:08.838Z,24.10
2018-07-02T08:47:05.845Z,24.10
2018-07-02T08:48:06.220Z,24.40
2018-07-02T08:49:06.288Z,23.60
2018-07-02T08:50:11.298Z,23.50
2018-07-02T08:51:08.610Z,23.70
2018-07-02T08:52:06.182Z,23.80
2018-07-02T08:53:07.995Z,23.90
2018-07-02T08:54:09.087Z,23.50
2018-07-02T08:55:06.054Z,23.50
2018-07-02T08:56:06.832Z,23.80
2018-07-02T08:57:11.071Z,24.20
2018-07-02T08:58:08.105Z,23.20
2018-07-02T08:59:05.619Z,23.40
2018-07-02T09:00:05.867Z,23.30
2018-07-02T09:01:10.505Z,23.60
2018-07-02T09:02:08.747Z,23.40
2018-07-02T09:03:11.167Z,23.30
2018-07-02T09:04:05.643Z,23.40
2018-07-02T09:05:10.944Z,23.90
2018-07-02T09:06:06.298Z,23.90
2018-07-02T09:07:10.808Z,24.10
2018-07-02T09:08:05.968Z,24.50
2018-07-02T09:09:06.475Z,24.90
2018-07-02T09:10:05.752Z,23.90
2018-07-02T09:11:06.802Z,24.30
2018-07-02T09:12:05.827Z,23.80
2018-07-02T09:13:05.825Z,23.80
2018-07-02T09:14:05.963Z,24.20
2018-07-02T09:15:05.963Z,24.20
2018-07-02T09:16:06.453Z,24.00
2018-07-02T09:17:06.445Z,23.90
2018-07-02T09:18:05.919Z,24.20
2018-07-02T09:19:08.402Z,23.80
2018-07-02T09:20:05.865Z,23.80
2018-07-02T09:21:06.153Z,23.40
2018-07-02T09:22:08.248Z,24.00
2018-07-02T09:23:06.034Z,23.90
2018-07-02T09:24:05.815Z,23.40
2018-07-02T09:25:06.298Z,24.30
2018-07-02T09:26:07.661Z,24.20
2018-07-02T09:27:08.927Z,24.30
2018-07-02T09:28:05.553Z,24.10
2018-07-02T09:29:08.187Z,24.20
2018-07-02T09:30:05.559Z,24.30
2018-07-02T09:31:11.171Z,24.90
2018-07-02T09:32:08.976Z,24.80
2018-07-02T09:33:05.722Z,24.80
2018-07-02T09:34:05.955Z,24.40
2018-07-02T09:35:08.519Z,24.00
2018-07-02T09:36:06.350Z,23.90
2018-07-02T09:37:09.889Z,24.60
2018-07-02T09:38:06.316Z,24.60
2018-07-02T09:39:05.914Z,23.90
2018-07-02T09:40:07.597Z,24.60
2018-07-02T09:41:05.817Z,23.80
2018-07-02T09:42:11.487Z,23.50
2018-07-02T09:43:08.368Z,23.30
2018-07-02T09:44:06.045Z,23.30
2018-07-02T09:45:05.920Z,23.00
2018-07-02T09:46:05.550Z,22.80
2018-07-02T09:47:05.793Z,23.40
2018-07-02T09:48:06.328Z,22.90
2018-07-02T09:49:05.509Z,23.00
2018-07-02T09:50:06.040Z,3.80
2018-07-02T09:51:06.760Z,22.60
2018-07-02T09:52:06.261Z,23.10
2018-07-02T09:53:06.136Z,23.10
2018-07-02T09:54:08.221Z,24.00
2018-07-02T09:55:06.369Z,23.80
2018-07-02T09:56:08.119Z,22.90
2018-07-02T09:57:10.604Z,22.90
2018-07-02T09:58:06.005Z,23.20
2018-07-02T09:59:11.024Z,22.60
2018-07-02T10:00:05.789Z,22.50
2018-07-02T10:01:06.388Z,22.20
2018-07-02T10:02:09.669Z,23.10
2018-07-02T10:03:11.191Z,23.40
2018-07-02T10:04:05.419Z,23.40
2018-07-02T10:05:08.387Z,22.90
2018-07-02T10:06:08.424Z,22.80
2018-07-02T10:07:05.851Z,22.80
2018-07-02T10:08:05.614Z,22.90
2018-07-02T10:09:05.624Z,22.60
2018-07-02T10:10:13.946Z,23.00
2018-07-02T10:11:06.425Z,23.00
2018-07-02T10:12:06.201Z,23.30
2018-07-02T10:13:06.348Z,23.30
2018-07-02T10:14:05.458Z,23.00
2018-07-02T10:15:06.287Z,23.00
2018-07-02T10:16:11.115Z,22.40
2018-07-02T10:17:08.279Z,22.50
2018-07-02T10:18:05.791Z,22.50
2018-07-02T10:19:08.521Z,23.60
2018-07-02T10:20:05.933Z,23.70
2018-07-02T10:21:05.370Z,23.50
2018-07-02T10:22:09.268Z,22.70
2018-07-02T10:23:05.714Z,22.70
2018-07-02T10:24:08.547Z,22.60
2018-07-02T10:25:07.161Z,22.40
2018-07-02T10:26:10.773Z,22.10
2018-07-02T10:27:08.751Z,21.90
2018-07-02T10:28:08.642Z,22.30
2018-07-02T10:29:05.841Z,22.30
2018-07-02T10:30:06.492Z,22.40
2018-07-02T10:31:06.296Z,22.70
2018-07-02T10:32:08.310Z,22.80
2018-07-02T10:33:05.711Z,22.80
2018-07-02T10:34:11.274Z,22.60
2018-07-02T10:35:05.770Z,23.70
2018-07-02T10:36:06.496Z,23.80
2018-07-02T10:37:08.919Z,23.00
2018-07-02T10:38:06.408Z,23.00
2018-07-02T10:39:06.001Z,21.80
2018-07-02T10:40:05.589Z,22.20
2018-07-02T10:41:06.206Z,22.40
2018-07-02T10:42:05.744Z,21.80
2018-07-02T10:43:05.765Z,21.80
2018-07-02T10:44:09.287Z,22.20
2018-07-02T10:45:10.821Z,22.20
2018-07-02T10:46:06.287Z,21.90
2018-07-02T10:47:08.900Z,22.10
2018-07-02T10:48:10.099Z,21.90
2018-07-02T10:49:08.761Z,22.40
2018-07-02T10:50:06.370Z,22.30
2018-07-02T10:51:05.942Z,22.50
2018-07-02T10:52:06.439Z,22.40
2018-07-02T10:53:05.856Z,21.90
2018-07-02T10:54:05.871Z,21.70
2018-07-02T10:55:06.034Z,21.50
2018-07-02T10:56:06.219Z,21.10
2018-07-02T10:57:05.449Z,21.70
2018-07-02T10:58:06.220Z,20.50
2018-07-02T10:59:08.938Z,20.80
2018-07-02T11:00:10.550Z,20.80
2018-07-02T11:01:08.686Z,20.80
2018-07-02T11:02:06.030Z,20.80
2018-07-02T11:03:06.298Z,21.10
2018-07-02T11:04:05.917Z,20.90
2018-07-02T11:05:06.076Z,20.50
2018-07-02T11:06:06.173Z,20.40
2018-07-02T11:07:10.718Z,20.70
2018-07-02T11:08:06.424Z,21.40
2018-07-02T11:09:08.892Z,21.80
2018-07-02T11:10:06.743Z,21.80
2018-07-02T11:11:10.612Z,20.90
2018-07-02T11:12:06.007Z,20.80
2018-07-02T11:13:06.077Z,20.40
2018-07-02T11:14:06.206Z,21.00
2018-07-02T11:15:06.281Z,21.30
2018-07-02T11:16:10.813Z,21.20
2018-07-02T11:17:06.383Z,21.20
2018-07-02T11:18:08.688Z,20.70
2018-07-02T11:19:06.326Z,20.70
2018-07-02T11:20:05.812Z,20.50
2018-07-02T11:21:05.563Z,20.90
2018-07-02T11:22:06.021Z,21.30
2018-07-02T11:23:06.017Z,21.10
2018-07-02T11:24:05.885Z,21.00
2018-07-02T11:25:06.419Z,20.60
2018-07-02T11:26:08.204Z,20.50
2018-07-02T11:27:05.724Z,7.70
2018-07-02T11:28:10.427Z,21.10
2018-07-02T11:29:05.747Z,21.10
2018-07-02T11:30:05.548Z,21.40
2018-07-02T11:31:05.934Z,21.40
2018-07-02T11:32:13.949Z,21.50
2018-07-02T11:33:08.542Z,21.50
2018-07-02T11:34:16.005Z,21.30
2018-07-02T11:35:06.473Z,21.30
2018-07-02T11:36:06.123Z,21.50
2018-07-02T11:37:05.903Z,21.70
2018-07-02T11:38:05.453Z,21.70
2018-07-02T11:39:05.992Z,21.30
2018-07-02T11:40:06.021Z,21.00
2018-07-02T11:41:06.217Z,20.10
2018-07-02T11:42:06.162Z,20.50
2018-07-02T11:43:05.638Z,20.40
2018-07-02T11:44:09.020Z,20.70
2018-07-02T11:45:08.000Z,20.60
2018-07-02T11:46:06.350Z,20.60
2018-07-02T11:47:06.702Z,20.70
2018-07-02T11:48:06.538Z,20.90
2018-07-02T11:49:06.293Z,21.50
2018-07-02T11:50:10.533Z,21.70
2018-07-02T11:51:08.354Z,21.40
2018-07-02T11:52:09.207Z,21.80
2018-07-02T11:53:06.100Z,21.90
2018-07-02T11:54:05.592Z,21.80
2018-07-02T11:55:06.504Z,21.40
2018-07-02T11:56:06.059Z,21.70
2018-07-02T11:57:05.708Z,22.20
2018-07-02T11:58:05.774Z,22.10
2018-07-02T11:59:10.907Z,22.20
2018-07-02T12:00:06.228Z,22.20
2018-07-02T12:01:10.881Z,22.20
2018-07-02T12:02:11.167Z,22.20
2018-07-02T12:03:11.347Z,21.70
2018-07-02T12:04:05.465Z,21.70
2018-07-02T12:05:05.570Z,22.20
2018-07-02T12:06:05.670Z,22.20
2018-07-02T12:07:06.136Z,22.00
2018-07-02T12:08:08.902Z,22.10
2018-07-02T12:09:06.826Z,22.10
2018-07-02T12:10:05.360Z,21.90
2018-07-02T12:11:08.317Z,22.20
2018-07-02T12:12:05.651Z,22.20
2018-07-02T12:13:06.764Z,21.80
2018-07-02T12:14:06.025Z,21.40
2018-07-02T12:15:06.274Z,20.80
2018-07-02T12:16:06.046Z,20.90
2018-07-02T12:17:06.036Z,21.20
2018-07-02T12:18:08.017Z,21.30
2018-07-02T12:19:08.229Z,21.30
2018-07-02T12:20:08.171Z,21.20
2018-07-02T12:21:06.026Z,21.20
2018-07-02T12:22:08.052Z,22.00
2018-07-02T12:23:08.086Z,21.00
2018-07-02T12:24:10.543Z,21.10
2018-07-02T12:25:06.114Z,21.10
2018-07-02T12:26:06.797Z,20.90
2018-07-02T12:27:06.787Z,20.70
2018-07-02T12:28:06.095Z,20.60
2018-07-02T12:29:06.253Z,21.20
2018-07-02T12:30:05.554Z,20.20
2018-07-02T12:31:05.555Z,20.20
2018-07-02T12:32:05.755Z,20.40
2018-07-02T12:33:08.914Z,20.30
2018-07-02T12:34:06.411Z,20.30
2018-07-02T12:35:05.780Z,20.60
2018-07-02T12:36:08.534Z,21.00
2018-07-02T12:37:10.996Z,20.10
2018-07-02T12:38:11.107Z,20.10
2018-07-02T12:39:06.085Z,20.40
2018-07-02T12:40:08.499Z,19.90
2018-07-02T12:41:08.468Z,19.80
2018-07-02T12:42:11.010Z,19.50
2018-07-02T12:43:06.177Z,19.60
2018-07-02T12:44:08.805Z,19.50
2018-07-02T12:45:06.078Z,19.50
2018-07-02T12:46:05.797Z,19.50
2018-07-02T12:47:06.377Z,19.20
2018-07-02T12:48:07.071Z,19.40
2018-07-02T12:49:05.473Z,19.30
2018-07-02T12:50:06.072Z,19.70
2018-07-02T12:51:06.074Z,19.30
2018-07-02T12:52:06.526Z,19.00